Terminal Aerodrome Forecast
Issued by NWS

Home | Current Version | Previous Version | Text Only | Print | Product List | Glossary On
Versions: 1 2 3 4 5 6 7 8 9 10 11 12 13 14 15 16 17 18 19 20 21 22 23
000
FTUS45 KABQ 311131
TAFROW
TAF
KROW 311131Z 3112/0112 03006KT P6SM FEW025 SCT035 BKN080
      TEMPO 3112/3116 3SM -SHRA BR FEW008 BKN015
     FM311600 05007KT P6SM VCSH SCT035 BKN060
     FM312000 06008KT P6SM VCTS SCT040CB BKN070
     FM312200 06008KT P6SM VCSH OVC040
     FM010400 VRB04KT P6SM FEW035 SCT060=

USA.gov is the U.S. government's official web portal to all federal, state and local government web resources and services.